Bewelcome, Mississippi
Current Conditions -  °F | °C
As of 11:53 PM on Saturday 22 Nov 2014 (Local Time) from KMCB Reporting Station
Overcast Overcast  
Wind Chill: 61°   Ceiling: 600
Heat Index: 61°   Visibility: 9mi
Dew Point: 58°   Wind: 10mph
Humidity: 90%   Direction: 110°ESE
Pressure: 29.9"   Gusts: 17mph
Location:  31.1819°N, 90.9008°W
Report Text: KMCB 230553Z AUTO 11009G15KT 9SM OVC006 16/14 A2990 RMK AO2 SLP122 T01610144 10161 20156 402060100 58019
Loading
Personal Weather Stations






























Interactive Weather Map New forecast layout! Learn more

10-Day Weather Forecast

Advertisements
Track Severe Weather on mobile